sensor_id;sensor_type;location;lat;lon;timestamp;P1;durP1;ratioP1;P2;durP2;ratioP2
10957;SDS011;5531;42.570;23.676;2023-03-17T00:00:43;588.47;;;39.53;;
10957;SDS011;5531;42.570;23.676;2023-03-17T00:03:15;307.40;;;27.35;;
10957;SDS011;5531;42.570;23.676;2023-03-17T00:05:52;133.05;;;19.42;;
10957;SDS011;5531;42.570;23.676;2023-03-17T00:08:23;228.88;;;24.00;;
10957;SDS011;5531;42.570;23.676;2023-03-17T00:10:54;305.98;;;26.63;;
10957;SDS011;5531;42.570;23.676;2023-03-17T00:13:23;79.82;;;19.27;;
10957;SDS011;5531;42.570;23.676;2023-03-17T00:15:53;788.25;;;56.78;;
10957;SDS011;5531;42.570;23.676;2023-03-17T00:18:26;211.15;;;21.45;;
10957;SDS011;5531;42.570;23.676;2023-03-17T00:21:00;725.17;;;42.03;;
10957;SDS011;5531;42.570;23.676;2023-03-17T00:23:29;820.33;;;58.15;;
10957;SDS011;5531;42.570;23.676;2023-03-17T00:25:59;1034.15;;;53.28;;
10957;SDS011;5531;42.570;23.676;2023-03-17T00:28:29;666.38;;;40.88;;
10957;SDS011;5531;42.570;23.676;2023-03-17T00:30:58;465.83;;;31.15;;
10957;SDS011;5531;42.570;23.676;2023-03-17T00:33:29;719.40;;;50.25;;
10957;SDS011;5531;42.570;23.676;2023-03-17T00:36:04;594.78;;;39.95;;
10957;SDS011;5531;42.570;23.676;2023-03-17T00:38:34;704.33;;;43.50;;
10957;SDS011;5531;42.570;23.676;2023-03-17T00:41:04;555.30;;;41.05;;
10957;SDS011;5531;42.570;23.676;2023-03-17T00:43:33;632.03;;;40.90;;
10957;SDS011;5531;42.570;23.676;2023-03-17T00:46:04;679.50;;;39.45;;
10957;SDS011;5531;42.570;23.676;2023-03-17T00:48:39;713.22;;;41.33;;
10957;SDS011;5531;42.570;23.676;2023-03-17T00:51:11;1014.55;;;52.53;;
10957;SDS011;5531;42.570;23.676;2023-03-17T00:53:40;956.55;;;54.72;;
10957;SDS011;5531;42.570;23.676;2023-03-17T00:56:10;799.33;;;44.35;;
10957;SDS011;5531;42.570;23.676;2023-03-17T00:58:42;749.83;;;50.17;;
10957;SDS011;5531;42.570;23.676;2023-03-17T01:01:11;713.60;;;40.33;;
10957;SDS011;5531;42.570;23.676;2023-03-17T01:03:42;709.60;;;39.47;;
10957;SDS011;5531;42.570;23.676;2023-03-17T01:06:14;178.18;;;28.35;;
10957;SDS011;5531;42.570;23.676;2023-03-17T01:08:44;296.33;;;26.95;;
10957;SDS011;5531;42.570;23.676;2023-03-17T01:11:14;983.63;;;50.67;;
10957;SDS011;5531;42.570;23.676;2023-03-17T01:13:46;218.75;;;21.25;;
10957;SDS011;5531;42.570;23.676;2023-03-17T01:16:15;904.08;;;50.10;;
10957;SDS011;5531;42.570;23.676;2023-03-17T01:18:44;445.42;;;31.58;;
10957;SDS011;5531;42.570;23.676;2023-03-17T01:21:16;734.80;;;42.75;;
10957;SDS011;5531;42.570;23.676;2023-03-17T01:23:45;762.25;;;46.42;;
10957;SDS011;5531;42.570;23.676;2023-03-17T01:26:14;733.83;;;39.65;;
10957;SDS011;5531;42.570;23.676;2023-03-17T01:28:43;112.63;;;17.23;;
10957;SDS011;5531;42.570;23.676;2023-03-17T01:31:12;125.78;;;19.85;;
10957;SDS011;5531;42.570;23.676;2023-03-17T01:33:41;135.48;;;17.63;;
10957;SDS011;5531;42.570;23.676;2023-03-17T01:36:10;633.80;;;40.60;;
10957;SDS011;5531;42.570;23.676;2023-03-17T01:38:42;542.38;;;35.60;;
10957;SDS011;5531;42.570;23.676;2023-03-17T01:41:12;133.15;;;19.08;;
10957;SDS011;5531;42.570;23.676;2023-03-17T01:43:41;491.58;;;32.10;;
10957;SDS011;5531;42.570;23.676;2023-03-17T01:46:15;201.48;;;26.30;;
10957;SDS011;5531;42.570;23.676;2023-03-17T01:51:36;12.43;;;9.82;;
10957;SDS011;5531;42.570;23.676;2023-03-17T01:54:14;9.98;;;8.93;;
10957;SDS011;5531;42.570;23.676;2023-03-17T01:56:48;9.60;;;8.63;;
10957;SDS011;5531;42.570;23.676;2023-03-17T01:59:21;11.90;;;10.05;;
10957;SDS011;5531;42.570;23.676;2023-03-17T02:01:55;34.22;;;10.13;;
10957;SDS011;5531;42.570;23.676;2023-03-17T02:04:27;11.55;;;10.23;;
10957;SDS011;5531;42.570;23.676;2023-03-17T02:06:57;12.05;;;9.65;;
10957;SDS011;5531;42.570;23.676;2023-03-17T02:09:30;23.70;;;21.63;;
10957;SDS011;5531;42.570;23.676;2023-03-17T02:12:01;18.58;;;16.77;;
10957;SDS011;5531;42.570;23.676;2023-03-17T02:14:31;55.72;;;21.50;;
10957;SDS011;5531;42.570;23.676;2023-03-17T02:17:01;26.08;;;19.40;;
10957;SDS011;5531;42.570;23.676;2023-03-17T02:19:30;13.05;;;10.90;;
10957;SDS011;5531;42.570;23.676;2023-03-17T02:22:02;12.27;;;10.50;;
10957;SDS011;5531;42.570;23.676;2023-03-17T02:24:32;14.20;;;9.10;;
10957;SDS011;5531;42.570;23.676;2023-03-17T02:27:07;11.23;;;8.45;;
10957;SDS011;5531;42.570;23.676;2023-03-17T02:29:40;13.02;;;9.45;;
10957;SDS011;5531;42.570;23.676;2023-03-17T02:32:10;26.73;;;10.73;;
10957;SDS011;5531;42.570;23.676;2023-03-17T02:34:42;10.07;;;9.07;;
10957;SDS011;5531;42.570;23.676;2023-03-17T02:37:14;13.10;;;7.80;;
10957;SDS011;5531;42.570;23.676;2023-03-17T02:39:44;28.25;;;18.80;;
10957;SDS011;5531;42.570;23.676;2023-03-17T02:42:13;19.55;;;17.65;;
10957;SDS011;5531;42.570;23.676;2023-03-17T02:44:42;8.88;;;7.97;;
10957;SDS011;5531;42.570;23.676;2023-03-17T02:47:12;9.43;;;8.15;;
10957;SDS011;5531;42.570;23.676;2023-03-17T02:49:41;9.15;;;8.20;;
10957;SDS011;5531;42.570;23.676;2023-03-17T02:52:14;22.73;;;9.55;;
10957;SDS011;5531;42.570;23.676;2023-03-17T02:54:43;68.28;;;12.82;;
10957;SDS011;5531;42.570;23.676;2023-03-17T02:57:12;12.35;;;8.65;;
10957;SDS011;5531;42.570;23.676;2023-03-17T02:59:41;17.95;;;16.17;;
10957;SDS011;5531;42.570;23.676;2023-03-17T03:02:11;28.35;;;25.85;;
10957;SDS011;5531;42.570;23.676;2023-03-17T03:04:41;13.27;;;12.07;;
10957;SDS011;5531;42.570;23.676;2023-03-17T03:07:10;22.73;;;20.83;;
10957;SDS011;5531;42.570;23.676;2023-03-17T03:09:42;8.77;;;7.93;;
10957;SDS011;5531;42.570;23.676;2023-03-17T03:12:11;7.00;;;6.30;;
10957;SDS011;5531;42.570;23.676;2023-03-17T03:14:40;7.82;;;7.03;;
10957;SDS011;5531;42.570;23.676;2023-03-17T03:17:09;7.57;;;6.88;;
10957;SDS011;5531;42.570;23.676;2023-03-17T03:19:39;19.70;;;14.95;;
10957;SDS011;5531;42.570;23.676;2023-03-17T03:22:08;7.32;;;6.50;;
10957;SDS011;5531;42.570;23.676;2023-03-17T03:24:37;15.57;;;14.27;;
10957;SDS011;5531;42.570;23.676;2023-03-17T03:27:09;11.88;;;10.77;;
10957;SDS011;5531;42.570;23.676;2023-03-17T03:29:38;17.40;;;15.90;;
10957;SDS011;5531;42.570;23.676;2023-03-17T03:32:08;22.02;;;20.13;;
10957;SDS011;5531;42.570;23.676;2023-03-17T03:34:37;21.60;;;19.80;;
10957;SDS011;5531;42.570;23.676;2023-03-17T03:37:06;8.57;;;7.75;;
10957;SDS011;5531;42.570;23.676;2023-03-17T03:39:35;10.90;;;9.88;;
10957;SDS011;5531;42.570;23.676;2023-03-17T03:42:04;7.88;;;7.18;;
10957;SDS011;5531;42.570;23.676;2023-03-17T03:44:36;6.57;;;5.88;;
10957;SDS011;5531;42.570;23.676;2023-03-17T03:47:05;6.20;;;5.60;;
10957;SDS011;5531;42.570;23.676;2023-03-17T03:49:34;6.78;;;6.10;;
10957;SDS011;5531;42.570;23.676;2023-03-17T03:52:04;7.03;;;6.25;;
10957;SDS011;5531;42.570;23.676;2023-03-17T03:54:33;7.28;;;6.57;;
10957;SDS011;5531;42.570;23.676;2023-03-17T03:57:02;7.43;;;6.72;;
10957;SDS011;5531;42.570;23.676;2023-03-17T03:59:31;6.75;;;6.03;;
10957;SDS011;5531;42.570;23.676;2023-03-17T04:02:03;8.93;;;7.95;;
10957;SDS011;5531;42.570;23.676;2023-03-17T04:04:32;10.93;;;9.93;;
10957;SDS011;5531;42.570;23.676;2023-03-17T04:07:01;21.25;;;19.52;;
10957;SDS011;5531;42.570;23.676;2023-03-17T04:09:30;9.75;;;8.80;;
10957;SDS011;5531;42.570;23.676;2023-03-17T04:11:59;7.07;;;5.90;;
10957;SDS011;5531;42.570;23.676;2023-03-17T04:14:28;6.38;;;5.70;;
10957;SDS011;5531;42.570;23.676;2023-03-17T04:16:57;6.35;;;5.70;;
10957;SDS011;5531;42.570;23.676;2023-03-17T04:19:30;8.93;;;6.60;;
10957;SDS011;5531;42.570;23.676;2023-03-17T04:21:59;9.70;;;7.85;;
10957;SDS011;5531;42.570;23.676;2023-03-17T04:24:28;6.43;;;5.82;;
10957;SDS011;5531;42.570;23.676;2023-03-17T04:26:57;9.93;;;7.22;;
10957;SDS011;5531;42.570;23.676;2023-03-17T04:29:26;9.02;;;7.28;;
10957;SDS011;5531;42.570;23.676;2023-03-17T04:31:56;7.20;;;6.50;;
10957;SDS011;5531;42.570;23.676;2023-03-17T04:34:25;5.93;;;5.28;;
10957;SDS011;5531;42.570;23.676;2023-03-17T04:36:57;9.45;;;8.55;;
10957;SDS011;5531;42.570;23.676;2023-03-17T04:39:26;6.07;;;5.47;;
10957;SDS011;5531;42.570;23.676;2023-03-17T04:41:55;6.93;;;6.20;;
10957;SDS011;5531;42.570;23.676;2023-03-17T04:44:24;14.63;;;13.23;;
10957;SDS011;5531;42.570;23.676;2023-03-17T04:46:53;20.65;;;18.90;;
10957;SDS011;5531;42.570;23.676;2023-03-17T04:49:22;28.27;;;25.77;;
10957;SDS011;5531;42.570;23.676;2023-03-17T04:51:52;27.40;;;25.00;;
10957;SDS011;5531;42.570;23.676;2023-03-17T04:54:24;11.15;;;9.88;;
10957;SDS011;5531;42.570;23.676;2023-03-17T04:56:53;11.88;;;10.77;;
10957;SDS011;5531;42.570;23.676;2023-03-17T04:59:22;14.70;;;13.38;;
10957;SDS011;5531;42.570;23.676;2023-03-17T05:01:51;7.68;;;6.65;;
10957;SDS011;5531;42.570;23.676;2023-03-17T05:04:20;13.95;;;12.55;;
10957;SDS011;5531;42.570;23.676;2023-03-17T05:06:50;18.50;;;16.88;;
10957;SDS011;5531;42.570;23.676;2023-03-17T05:09:19;30.63;;;28.08;;
10957;SDS011;5531;42.570;23.676;2023-03-17T05:11:50;7.25;;;6.15;;
10957;SDS011;5531;42.570;23.676;2023-03-17T05:14:19;15.30;;;13.90;;
10957;SDS011;5531;42.570;23.676;2023-03-17T05:16:48;7.45;;;6.65;;
10957;SDS011;5531;42.570;23.676;2023-03-17T05:19:17;7.78;;;6.93;;
10957;SDS011;5531;42.570;23.676;2023-03-17T05:21:47;8.43;;;7.25;;
10957;SDS011;5531;42.570;23.676;2023-03-17T05:24:16;8.15;;;7.28;;
10957;SDS011;5531;42.570;23.676;2023-03-17T05:26:45;8.82;;;7.70;;
10957;SDS011;5531;42.570;23.676;2023-03-17T05:29:16;25.10;;;22.85;;
10957;SDS011;5531;42.570;23.676;2023-03-17T05:31:45;15.95;;;14.45;;
10957;SDS011;5531;42.570;23.676;2023-03-17T05:34:14;10.00;;;8.55;;
10957;SDS011;5531;42.570;23.676;2023-03-17T05:36:43;11.60;;;10.50;;
10957;SDS011;5531;42.570;23.676;2023-03-17T05:39:13;10.73;;;9.27;;
10957;SDS011;5531;42.570;23.676;2023-03-17T05:41:42;16.42;;;15.02;;
10957;SDS011;5531;42.570;23.676;2023-03-17T05:44:11;9.95;;;8.93;;
10957;SDS011;5531;42.570;23.676;2023-03-17T05:46:43;8.98;;;6.90;;
10957;SDS011;5531;42.570;23.676;2023-03-17T05:49:12;8.20;;;6.72;;
10957;SDS011;5531;42.570;23.676;2023-03-17T05:51:41;8.50;;;7.43;;
10957;SDS011;5531;42.570;23.676;2023-03-17T05:54:10;8.68;;;7.78;;
10957;SDS011;5531;42.570;23.676;2023-03-17T05:56:40;8.43;;;7.55;;
10957;SDS011;5531;42.570;23.676;2023-03-17T05:59:09;12.32;;;11.15;;
10957;SDS011;5531;42.570;23.676;2023-03-17T06:01:39;15.02;;;13.65;;
10957;SDS011;5531;42.570;23.676;2023-03-17T06:04:11;8.50;;;7.70;;
10957;SDS011;5531;42.570;23.676;2023-03-17T06:06:40;12.63;;;11.43;;
10957;SDS011;5531;42.570;23.676;2023-03-17T06:09:10;8.52;;;7.63;;
10957;SDS011;5531;42.570;23.676;2023-03-17T06:11:39;10.60;;;9.68;;
10957;SDS011;5531;42.570;23.676;2023-03-17T06:14:08;10.15;;;9.13;;
10957;SDS011;5531;42.570;23.676;2023-03-17T06:16:38;11.30;;;10.18;;
10957;SDS011;5531;42.570;23.676;2023-03-17T06:19:10;10.07;;;9.18;;
10957;SDS011;5531;42.570;23.676;2023-03-17T06:21:39;9.50;;;8.50;;
10957;SDS011;5531;42.570;23.676;2023-03-17T06:24:08;6.90;;;6.25;;
10957;SDS011;5531;42.570;23.676;2023-03-17T06:26:37;7.07;;;6.38;;
10957;SDS011;5531;42.570;23.676;2023-03-17T06:29:06;8.05;;;7.13;;
10957;SDS011;5531;42.570;23.676;2023-03-17T06:31:37;10.35;;;9.15;;
10957;SDS011;5531;42.570;23.676;2023-03-17T06:34:06;13.45;;;12.07;;
10957;SDS011;5531;42.570;23.676;2023-03-17T06:36:39;9.38;;;8.32;;
10957;SDS011;5531;42.570;23.676;2023-03-17T06:39:08;12.88;;;11.57;;
10957;SDS011;5531;42.570;23.676;2023-03-17T06:41:37;11.02;;;9.93;;
10957;SDS011;5531;42.570;23.676;2023-03-17T06:44:07;13.40;;;12.20;;
10957;SDS011;5531;42.570;23.676;2023-03-17T06:46:36;10.10;;;8.95;;
10957;SDS011;5531;42.570;23.676;2023-03-17T06:49:05;16.80;;;15.35;;
10957;SDS011;5531;42.570;23.676;2023-03-17T06:51:40;24.48;;;22.35;;
10957;SDS011;5531;42.570;23.676;2023-03-17T06:54:09;18.90;;;17.10;;
10957;SDS011;5531;42.570;23.676;2023-03-17T06:56:38;14.48;;;12.98;;
10957;SDS011;5531;42.570;23.676;2023-03-17T06:59:08;10.02;;;8.50;;
10957;SDS011;5531;42.570;23.676;2023-03-17T07:01:37;10.10;;;8.57;;
10957;SDS011;5531;42.570;23.676;2023-03-17T07:04:06;8.25;;;7.45;;
10957;SDS011;5531;42.570;23.676;2023-03-17T07:06:35;7.40;;;6.70;;
10957;SDS011;5531;42.570;23.676;2023-03-17T07:09:10;8.75;;;7.72;;
10957;SDS011;5531;42.570;23.676;2023-03-17T07:11:39;12.20;;;11.10;;
10957;SDS011;5531;42.570;23.676;2023-03-17T07:14:08;9.57;;;8.65;;
10957;SDS011;5531;42.570;23.676;2023-03-17T07:16:38;8.90;;;8.05;;
10957;SDS011;5531;42.570;23.676;2023-03-17T07:19:06;7.97;;;7.18;;
10957;SDS011;5531;42.570;23.676;2023-03-17T07:21:36;9.00;;;8.20;;
10957;SDS011;5531;42.570;23.676;2023-03-17T07:24:05;9.45;;;8.55;;
10957;SDS011;5531;42.570;23.676;2023-03-17T07:26:37;7.80;;;7.00;;
10957;SDS011;5531;42.570;23.676;2023-03-17T07:29:06;7.95;;;7.00;;
10957;SDS011;5531;42.570;23.676;2023-03-17T07:31:35;7.05;;;6.20;;
10957;SDS011;5531;42.570;23.676;2023-03-17T07:34:04;7.82;;;6.90;;
10957;SDS011;5531;42.570;23.676;2023-03-17T07:36:33;7.20;;;6.50;;
10957;SDS011;5531;42.570;23.676;2023-03-17T07:39:02;7.68;;;6.97;;
10957;SDS011;5531;42.570;23.676;2023-03-17T07:41:31;8.60;;;7.80;;
10957;SDS011;5531;42.570;23.676;2023-03-17T07:44:04;8.23;;;7.35;;
10957;SDS011;5531;42.570;23.676;2023-03-17T07:46:33;7.78;;;6.47;;
10957;SDS011;5531;42.570;23.676;2023-03-17T07:49:03;8.60;;;7.80;;
10957;SDS011;5531;42.570;23.676;2023-03-17T07:51:33;10.00;;;9.05;;
10957;SDS011;5531;42.570;23.676;2023-03-17T07:54:03;7.82;;;7.03;;
10957;SDS011;5531;42.570;23.676;2023-03-17T07:56:32;8.18;;;6.97;;
10957;SDS011;5531;42.570;23.676;2023-03-17T07:59:04;7.75;;;6.63;;
10957;SDS011;5531;42.570;23.676;2023-03-17T08:01:34;7.90;;;7.05;;
10957;SDS011;5531;42.570;23.676;2023-03-17T08:04:04;8.75;;;7.85;;
10957;SDS011;5531;42.570;23.676;2023-03-17T08:06:35;7.07;;;5.95;;
10957;SDS011;5531;42.570;23.676;2023-03-17T08:09:05;5.53;;;4.97;;
10957;SDS011;5531;42.570;23.676;2023-03-17T08:11:34;7.40;;;6.70;;
10957;SDS011;5531;42.570;23.676;2023-03-17T08:14:05;8.50;;;7.80;;
10957;SDS011;5531;42.570;23.676;2023-03-17T08:16:35;9.65;;;8.93;;
10957;SDS011;5531;42.570;23.676;2023-03-17T08:19:04;6.10;;;5.53;;
10957;SDS011;5531;42.570;23.676;2023-03-17T08:21:35;7.22;;;6.53;;
10957;SDS011;5531;42.570;23.676;2023-03-17T08:24:04;4.93;;;4.20;;
10957;SDS011;5531;42.570;23.676;2023-03-17T08:26:34;5.75;;;4.90;;
10957;SDS011;5531;42.570;23.676;2023-03-17T08:29:05;6.82;;;5.88;;
10957;SDS011;5531;42.570;23.676;2023-03-17T08:31:35;5.43;;;4.90;;
10957;SDS011;5531;42.570;23.676;2023-03-17T08:34:04;4.70;;;4.30;;
10957;SDS011;5531;42.570;23.676;2023-03-17T08:36:34;4.63;;;4.05;;
10957;SDS011;5531;42.570;23.676;2023-03-17T08:39:03;5.35;;;4.55;;
10957;SDS011;5531;42.570;23.676;2023-03-17T08:41:34;5.15;;;4.65;;
10957;SDS011;5531;42.570;23.676;2023-03-17T08:44:07;4.88;;;4.38;;
10957;SDS011;5531;42.570;23.676;2023-03-17T08:46:37;5.82;;;5.32;;
10957;SDS011;5531;42.570;23.676;2023-03-17T08:49:06;5.32;;;4.78;;
10957;SDS011;5531;42.570;23.676;2023-03-17T08:51:36;6.43;;;5.25;;
10957;SDS011;5531;42.570;23.676;2023-03-17T08:54:06;5.38;;;4.70;;
10957;SDS011;5531;42.570;23.676;2023-03-17T08:56:35;7.68;;;7.00;;
10957;SDS011;5531;42.570;23.676;2023-03-17T08:59:08;9.88;;;8.98;;
10957;SDS011;5531;42.570;23.676;2023-03-17T09:01:37;6.30;;;5.70;;
10957;SDS011;5531;42.570;23.676;2023-03-17T09:04:08;6.68;;;5.60;;
10957;SDS011;5531;42.570;23.676;2023-03-17T09:06:37;6.93;;;6.25;;
10957;SDS011;5531;42.570;23.676;2023-03-17T09:09:06;6.25;;;5.65;;
10957;SDS011;5531;42.570;23.676;2023-03-17T09:11:35;6.35;;;5.75;;
10957;SDS011;5531;42.570;23.676;2023-03-17T09:14:07;6.32;;;5.68;;
10957;SDS011;5531;42.570;23.676;2023-03-17T09:16:36;8.07;;;6.75;;
10957;SDS011;5531;42.570;23.676;2023-03-17T09:19:05;6.68;;;5.97;;
10957;SDS011;5531;42.570;23.676;2023-03-17T09:21:34;6.10;;;5.50;;
10957;SDS011;5531;42.570;23.676;2023-03-17T09:24:03;6.57;;;5.97;;
10957;SDS011;5531;42.570;23.676;2023-03-17T09:26:32;6.53;;;5.93;;
10957;SDS011;5531;42.570;23.676;2023-03-17T09:29:01;7.40;;;6.80;;
10957;SDS011;5531;42.570;23.676;2023-03-17T09:31:34;6.65;;;6.05;;
10957;SDS011;5531;42.570;23.676;2023-03-17T09:34:03;8.48;;;7.78;;
10957;SDS011;5531;42.570;23.676;2023-03-17T09:36:33;6.53;;;5.82;;
10957;SDS011;5531;42.570;23.676;2023-03-17T09:39:02;6.68;;;6.03;;
10957;SDS011;5531;42.570;23.676;2023-03-17T09:41:46;6.70;;;6.10;;
10957;SDS011;5531;42.570;23.676;2023-03-17T09:44:26;7.40;;;5.88;;
10957;SDS011;5531;42.570;23.676;2023-03-17T09:47:12;5.82;;;5.22;;
10957;SDS011;5531;42.570;23.676;2023-03-17T09:49:56;7.88;;;7.18;;
10957;SDS011;5531;42.570;23.676;2023-03-17T09:52:28;6.82;;;6.13;;
10957;SDS011;5531;42.570;23.676;2023-03-17T09:54:59;9.85;;;6.88;;
10957;SDS011;5531;42.570;23.676;2023-03-17T09:57:33;11.93;;;10.88;;
10957;SDS011;5531;42.570;23.676;2023-03-17T10:00:05;7.45;;;6.75;;
10957;SDS011;5531;42.570;23.676;2023-03-17T10:02:43;7.40;;;6.70;;
10957;SDS011;5531;42.570;23.676;2023-03-17T10:05:16;7.13;;;6.43;;
10957;SDS011;5531;42.570;23.676;2023-03-17T10:07:49;7.53;;;6.75;;
10957;SDS011;5531;42.570;23.676;2023-03-17T10:10:26;8.95;;;7.40;;
10957;SDS011;5531;42.570;23.676;2023-03-17T10:13:02;8.30;;;7.50;;
10957;SDS011;5531;42.570;23.676;2023-03-17T10:15:39;8.73;;;7.57;;
10957;SDS011;5531;42.570;23.676;2023-03-17T10:18:17;8.05;;;7.25;;
10957;SDS011;5531;42.570;23.676;2023-03-17T10:20:51;6.75;;;5.38;;
10957;SDS011;5531;42.570;23.676;2023-03-17T10:23:24;7.00;;;6.30;;
10957;SDS011;5531;42.570;23.676;2023-03-17T10:25:59;7.63;;;6.85;;
10957;SDS011;5531;42.570;23.676;2023-03-17T10:28:34;7.43;;;6.55;;
10957;SDS011;5531;42.570;23.676;2023-03-17T10:31:10;7.38;;;6.30;;
10957;SDS011;5531;42.570;23.676;2023-03-17T10:33:45;8.00;;;6.80;;
10957;SDS011;5531;42.570;23.676;2023-03-17T10:36:30;7.10;;;6.22;;
10957;SDS011;5531;42.570;23.676;2023-03-17T10:39:02;7.25;;;6.55;;
10957;SDS011;5531;42.570;23.676;2023-03-17T10:41:32;7.18;;;6.47;;
10957;SDS011;5531;42.570;23.676;2023-03-17T10:44:04;5.85;;;5.20;;
10957;SDS011;5531;42.570;23.676;2023-03-17T10:46:37;11.85;;;10.88;;
10957;SDS011;5531;42.570;23.676;2023-03-17T10:49:11;5.97;;;5.38;;
10957;SDS011;5531;42.570;23.676;2023-03-17T10:51:47;6.00;;;5.40;;
10957;SDS011;5531;42.570;23.676;2023-03-17T10:54:19;7.82;;;7.13;;
10957;SDS011;5531;42.570;23.676;2023-03-17T10:56:57;5.82;;;5.15;;
10957;SDS011;5531;42.570;23.676;2023-03-17T10:59:30;5.90;;;5.30;;
10957;SDS011;5531;42.570;23.676;2023-03-17T11:02:05;5.68;;;5.00;;
10957;SDS011;5531;42.570;23.676;2023-03-17T11:04:47;5.93;;;5.22;;
10957;SDS011;5531;42.570;23.676;2023-03-17T11:07:18;5.90;;;5.10;;
10957;SDS011;5531;42.570;23.676;2023-03-17T11:09:48;6.97;;;5.65;;
10957;SDS011;5531;42.570;23.676;2023-03-17T11:12:21;5.07;;;4.40;;
10957;SDS011;5531;42.570;23.676;2023-03-17T11:14:59;6.00;;;5.40;;
10957;SDS011;5531;42.570;23.676;2023-03-17T11:17:36;6.13;;;4.93;;
10957;SDS011;5531;42.570;23.676;2023-03-17T11:20:18;4.88;;;4.07;;
10957;SDS011;5531;42.570;23.676;2023-03-17T11:23:04;4.85;;;4.35;;
10957;SDS011;5531;42.570;23.676;2023-03-17T11:25:39;7.40;;;6.80;;
10957;SDS011;5531;42.570;23.676;2023-03-17T11:28:14;4.82;;;4.32;;
10957;SDS011;5531;42.570;23.676;2023-03-17T11:30:51;4.50;;;4.10;;
10957;SDS011;5531;42.570;23.676;2023-03-17T11:33:35;4.40;;;4.00;;
10957;SDS011;5531;42.570;23.676;2023-03-17T11:36:17;5.18;;;4.38;;
10957;SDS011;5531;42.570;23.676;2023-03-17T11:38:58;5.95;;;4.70;;
10957;SDS011;5531;42.570;23.676;2023-03-17T11:41:41;4.63;;;3.80;;
10957;SDS011;5531;42.570;23.676;2023-03-17T11:47:27;4.78;;;4.28;;
10957;SDS011;5531;42.570;23.676;2023-03-17T11:50:07;5.65;;;5.15;;
10957;SDS011;5531;42.570;23.676;2023-03-17T11:52:53;5.43;;;4.93;;
10957;SDS011;5531;42.570;23.676;2023-03-17T11:55:33;7.30;;;6.63;;
10957;SDS011;5531;42.570;23.676;2023-03-17T11:58:11;5.28;;;4.78;;
10957;SDS011;5531;42.570;23.676;2023-03-17T12:00:45;5.93;;;5.13;;
10957;SDS011;5531;42.570;23.676;2023-03-17T12:03:20;5.43;;;4.00;;
10957;SDS011;5531;42.570;23.676;2023-03-17T12:05:59;4.65;;;4.20;;
10957;SDS011;5531;42.570;23.676;2023-03-17T12:08:38;4.13;;;3.72;;
10957;SDS011;5531;42.570;23.676;2023-03-17T12:11:11;3.80;;;3.40;;
10957;SDS011;5531;42.570;23.676;2023-03-17T12:13:47;4.15;;;3.45;;
10957;SDS011;5531;42.570;23.676;2023-03-17T12:16:20;4.10;;;3.70;;
10957;SDS011;5531;42.570;23.676;2023-03-17T12:18:58;4.50;;;4.10;;
10957;SDS011;5531;42.570;23.676;2023-03-17T12:21:35;3.50;;;3.20;;
10957;SDS011;5531;42.570;23.676;2023-03-17T12:24:12;3.30;;;3.00;;
10957;SDS011;5531;42.570;23.676;2023-03-17T12:26:48;4.03;;;3.63;;
10957;SDS011;5531;42.570;23.676;2023-03-17T12:29:24;3.35;;;2.88;;
10957;SDS011;5531;42.570;23.676;2023-03-17T12:32:03;3.30;;;3.00;;
10957;SDS011;5531;42.570;23.676;2023-03-17T12:34:37;3.65;;;3.35;;
10957;SDS011;5531;42.570;23.676;2023-03-17T12:37:11;3.75;;;3.30;;
10957;SDS011;5531;42.570;23.676;2023-03-17T12:39:46;4.55;;;3.95;;
10957;SDS011;5531;42.570;23.676;2023-03-17T12:42:35;4.28;;;3.70;;
10957;SDS011;5531;42.570;23.676;2023-03-17T12:45:20;3.97;;;3.60;;
10957;SDS011;5531;42.570;23.676;2023-03-17T12:48:11;2.88;;;2.67;;
10957;SDS011;5531;42.570;23.676;2023-03-17T12:51:05;2.50;;;2.30;;
10957;SDS011;5531;42.570;23.676;2023-03-17T12:53:47;2.28;;;2.08;;
10957;SDS011;5531;42.570;23.676;2023-03-17T12:56:20;3.05;;;2.75;;
10957;SDS011;5531;42.570;23.676;2023-03-17T12:58:57;2.47;;;2.28;;
10957;SDS011;5531;42.570;23.676;2023-03-17T13:01:30;2.65;;;2.35;;
10957;SDS011;5531;42.570;23.676;2023-03-17T13:04:08;2.58;;;2.17;;
10957;SDS011;5531;42.570;23.676;2023-03-17T13:06:44;2.30;;;2.10;;
10957;SDS011;5531;42.570;23.676;2023-03-17T13:09:34;2.78;;;2.58;;
10957;SDS011;5531;42.570;23.676;2023-03-17T13:15:24;2.38;;;2.17;;
10957;SDS011;5531;42.570;23.676;2023-03-17T13:21:11;2.92;;;2.30;;
10957;SDS011;5531;42.570;23.676;2023-03-17T13:23:42;2.63;;;2.30;;
10957;SDS011;5531;42.570;23.676;2023-03-17T13:26:13;2.15;;;1.95;;
10957;SDS011;5531;42.570;23.676;2023-03-17T13:28:46;2.60;;;1.90;;
10957;SDS011;5531;42.570;23.676;2023-03-17T13:34:11;2.50;;;2.30;;
10957;SDS011;5531;42.570;23.676;2023-03-17T13:36:44;2.72;;;2.53;;
10957;SDS011;5531;42.570;23.676;2023-03-17T13:42:48;2.30;;;2.10;;
10957;SDS011;5531;42.570;23.676;2023-03-17T13:45:35;2.95;;;2.10;;
10957;SDS011;5531;42.570;23.676;2023-03-17T13:48:26;2.85;;;2.22;;
10957;SDS011;5531;42.570;23.676;2023-03-17T13:51:01;2.47;;;2.17;;
10957;SDS011;5531;42.570;23.676;2023-03-17T13:53:46;3.08;;;2.47;;
10957;SDS011;5531;42.570;23.676;2023-03-17T13:56:23;1.95;;;1.80;;
10957;SDS011;5531;42.570;23.676;2023-03-17T13:59:05;2.08;;;1.85;;
10957;SDS011;5531;42.570;23.676;2023-03-17T14:01:40;2.47;;;2.25;;
10957;SDS011;5531;42.570;23.676;2023-03-17T14:04:23;2.10;;;1.90;;
10957;SDS011;5531;42.570;23.676;2023-03-17T14:06:55;2.40;;;2.20;;
10957;SDS011;5531;42.570;23.676;2023-03-17T14:09:33;2.17;;;1.98;;
10957;SDS011;5531;42.570;23.676;2023-03-17T14:12:06;1.95;;;1.70;;
10957;SDS011;5531;42.570;23.676;2023-03-17T14:14:41;2.00;;;1.90;;
10957;SDS011;5531;42.570;23.676;2023-03-17T14:17:18;1.92;;;1.80;;
10957;SDS011;5531;42.570;23.676;2023-03-17T14:20:04;1.80;;;1.70;;
10957;SDS011;5531;42.570;23.676;2023-03-17T14:22:38;1.83;;;1.70;;
10957;SDS011;5531;42.570;23.676;2023-03-17T14:25:13;2.08;;;1.88;;
10957;SDS011;5531;42.570;23.676;2023-03-17T14:27:44;2.83;;;2.22;;
10957;SDS011;5531;42.570;23.676;2023-03-17T14:30:16;2.78;;;2.30;;
10957;SDS011;5531;42.570;23.676;2023-03-17T14:32:49;2.45;;;2.13;;
10957;SDS011;5531;42.570;23.676;2023-03-17T14:35:27;3.38;;;2.65;;
10957;SDS011;5531;42.570;23.676;2023-03-17T14:37:57;2.50;;;2.30;;
10957;SDS011;5531;42.570;23.676;2023-03-17T14:40:29;2.50;;;2.30;;
10957;SDS011;5531;42.570;23.676;2023-03-17T14:43:01;2.28;;;2.08;;
10957;SDS011;5531;42.570;23.676;2023-03-17T14:45:40;2.20;;;2.00;;
10957;SDS011;5531;42.570;23.676;2023-03-17T14:48:15;2.10;;;1.90;;
10957;SDS011;5531;42.570;23.676;2023-03-17T14:50:53;2.25;;;2.05;;
10957;SDS011;5531;42.570;23.676;2023-03-17T14:53:29;2.50;;;2.30;;
10957;SDS011;5531;42.570;23.676;2023-03-17T14:55:59;2.38;;;2.17;;
10957;SDS011;5531;42.570;23.676;2023-03-17T14:58:30;2.67;;;2.47;;
10957;SDS011;5531;42.570;23.676;2023-03-17T15:01:04;2.75;;;2.55;;
10957;SDS011;5531;42.570;23.676;2023-03-17T15:03:36;2.50;;;2.30;;
10957;SDS011;5531;42.570;23.676;2023-03-17T15:06:20;2.53;;;2.33;;
10957;SDS011;5531;42.570;23.676;2023-03-17T15:08:52;2.83;;;2.63;;
10957;SDS011;5531;42.570;23.676;2023-03-17T15:11:22;3.88;;;2.60;;
10957;SDS011;5531;42.570;23.676;2023-03-17T15:13:54;2.72;;;2.38;;
10957;SDS011;5531;42.570;23.676;2023-03-17T15:16:33;2.67;;;2.47;;
10957;SDS011;5531;42.570;23.676;2023-03-17T15:19:06;2.83;;;2.30;;
10957;SDS011;5531;42.570;23.676;2023-03-17T15:21:45;2.80;;;2.60;;
10957;SDS011;5531;42.570;23.676;2023-03-17T15:24:22;2.60;;;2.40;;
10957;SDS011;5531;42.570;23.676;2023-03-17T15:27:00;2.38;;;2.17;;